createdAt,value
2022-11-04T00:00:04.816Z,92.97
2022-11-04T00:00:15.619Z,92.97
2022-11-04T00:00:29.669Z,92.87
2022-11-04T00:00:41.002Z,92.87
2022-11-04T00:00:51.821Z,92.87
2022-11-04T00:01:02.644Z,92.87
2022-11-04T00:01:14.393Z,92.87
2022-11-04T00:01:26.651Z,92.87
2022-11-04T00:01:37.421Z,92.87
2022-11-04T00:01:48.297Z,92.87
2022-11-04T00:02:00.643Z,92.87
2022-11-04T00:02:11.444Z,92.87
2022-11-04T00:02:23.185Z,92.87
2022-11-04T00:02:35.408Z,92.87
2022-11-04T00:02:46.196Z,92.87
2022-11-04T00:02:58.671Z,92.87
2022-11-04T00:03:11.413Z,92.97
2022-11-04T00:03:23.251Z,92.97
2022-11-04T00:03:35.034Z,92.97
2022-11-04T00:03:45.814Z,92.97
2022-11-04T00:03:56.592Z,92.97
2022-11-04T00:04:09.044Z,92.97
2022-11-04T00:04:20.732Z,93.07
2022-11-04T00:04:31.475Z,93.07
2022-11-04T00:04:42.242Z,92.97
2022-11-04T00:04:53.034Z,92.97
2022-11-04T00:05:04.735Z,92.97
2022-11-04T00:05:16.454Z,92.97
2022-11-04T00:05:28.884Z,92.97
2022-11-04T00:05:40.635Z,93.07
2022-11-04T00:05:51.373Z,93.07
2022-11-04T00:06:02.163Z,93.07
2022-11-04T00:06:14.862Z,93.07
2022-11-04T00:06:25.632Z,93.07
2022-11-04T00:06:36.425Z,93.07
2022-11-04T00:06:47.182Z,93.07
2022-11-04T00:07:00.405Z,92.97
2022-11-04T00:07:11.153Z,92.97
2022-11-04T00:07:21.894Z,92.97
2022-11-04T00:07:34.354Z,92.97
2022-11-04T00:07:45.114Z,92.97
2022-11-04T00:07:57.522Z,92.97
2022-11-04T00:08:08.253Z,93.07
2022-11-04T00:08:21.469Z,93.07
2022-11-04T00:08:32.224Z,93.07
2022-11-04T00:08:43.982Z,93.07
2022-11-04T00:08:55.723Z,92.97
2022-11-04T00:09:06.498Z,92.97
2022-11-04T00:09:17.236Z,93.07
2022-11-04T00:09:27.967Z,92.97
2022-11-04T00:09:40.433Z,92.97
2022-11-04T00:09:51.193Z,92.97
2022-11-04T00:10:02.937Z,92.97
2022-11-04T00:10:13.685Z,93.07
2022-11-04T00:10:25.983Z,93.07
2022-11-04T00:10:36.734Z,93.07
2022-11-04T00:10:47.485Z,93.07
2022-11-04T00:10:58.253Z,93.07
2022-11-04T00:11:09.034Z,93.07
2022-11-04T00:11:19.792Z,93.07
2022-11-04T00:11:31.464Z,93.07
2022-11-04T00:11:42.233Z,93.07
2022-11-04T00:11:53.944Z,93.07
2022-11-04T00:12:04.737Z,93.07
2022-11-04T00:12:16.436Z,93.07
2022-11-04T00:12:28.699Z,93.07
2022-11-04T00:12:39.434Z,93.07
2022-11-04T00:12:51.637Z,92.97
2022-11-04T00:13:03.336Z,92.97
2022-11-04T00:13:14.138Z,92.97
2022-11-04T00:13:24.877Z,92.87
2022-11-04T00:13:35.635Z,92.83
2022-11-04T00:13:46.397Z,92.83
2022-11-04T00:13:57.127Z,92.83
2022-11-04T00:14:07.905Z,92.83
2022-11-04T00:14:18.640Z,92.72
2022-11-04T00:14:31.066Z,92.72
2022-11-04T00:14:41.805Z,92.72
2022-11-04T00:14:52.571Z,92.83
2022-11-04T00:15:03.313Z,92.83
2022-11-04T00:15:14.085Z,92.83
2022-11-04T00:15:26.811Z,92.83
2022-11-04T00:15:38.515Z,92.83
2022-11-04T00:15:50.465Z,92.83
2022-11-04T00:16:02.209Z,92.72
2022-11-04T00:16:13.937Z,92.72
2022-11-04T00:16:25.675Z,92.72
2022-11-04T00:16:38.162Z,92.72
2022-11-04T00:16:49.630Z,92.72
2022-11-04T00:17:01.389Z,92.72
2022-11-04T00:17:13.076Z,92.72
2022-11-04T00:17:23.845Z,92.72
2022-11-04T00:17:34.616Z,92.72
2022-11-04T00:17:47.059Z,92.72
2022-11-04T00:17:57.786Z,92.72
2022-11-04T00:18:08.556Z,92.72
2022-11-04T00:18:20.296Z,92.72
2022-11-04T00:18:32.537Z,92.72
2022-11-04T00:18:43.296Z,92.83
2022-11-04T00:18:56.517Z,92.83
2022-11-04T00:19:09.725Z,92.83
2022-11-04T00:19:22.647Z,92.83
2022-11-04T00:19:34.837Z,92.83
2022-11-04T00:19:46.975Z,92.83
2022-11-04T00:19:57.746Z,92.83
2022-11-04T00:20:09.957Z,92.83
2022-11-04T00:20:22.395Z,92.83
2022-11-04T00:20:34.838Z,92.72
2022-11-04T00:20:45.617Z,92.72
2022-11-04T00:20:58.127Z,92.72
2022-11-04T00:21:08.962Z,92.72
2022-11-04T00:21:22.175Z,92.72
2022-11-04T00:21:32.967Z,92.72
2022-11-04T00:21:43.697Z,92.72
2022-11-04T00:21:54.449Z,92.72
2022-11-04T00:22:05.218Z,92.72
2022-11-04T00:22:17.648Z,92.72
2022-11-04T00:22:29.389Z,92.83
2022-11-04T00:22:41.107Z,92.83
2022-11-04T00:22:51.911Z,92.83
2022-11-04T00:23:03.638Z,92.93
2022-11-04T00:23:16.089Z,92.93
2022-11-04T00:23:26.848Z,92.93
2022-11-04T00:23:38.607Z,92.93
2022-11-04T00:23:50.829Z,92.93
2022-11-04T00:24:01.599Z,92.93
2022-11-04T00:24:13.308Z,92.93
2022-11-04T00:24:25.515Z,92.93
2022-11-04T00:24:36.257Z,92.93
2022-11-04T00:24:47.957Z,92.93
2022-11-04T00:24:59.692Z,92.93
2022-11-04T00:25:11.907Z,93.03
2022-11-04T00:25:22.677Z,93.03
2022-11-04T00:25:33.472Z,93.13
2022-11-04T00:25:44.329Z,93.24
2022-11-04T00:25:56.028Z,93.24
2022-11-04T00:26:08.979Z,93.24
2022-11-04T00:26:19.719Z,93.24
2022-11-04T00:26:31.450Z,93.24
2022-11-04T00:26:43.169Z,93.24
2022-11-04T00:26:55.371Z,93.24
2022-11-04T00:27:07.819Z,93.33
2022-11-04T00:27:18.559Z,93.44
2022-11-04T00:27:29.302Z,93.54
2022-11-04T00:27:40.050Z,93.65
2022-11-04T00:27:50.820Z,93.74
2022-11-04T00:28:04.576Z,93.74
2022-11-04T00:28:16.311Z,93.85
2022-11-04T00:28:27.051Z,93.85
2022-11-04T00:28:37.816Z,93.95
2022-11-04T00:28:49.610Z,93.95
2022-11-04T00:29:00.360Z,94.06
2022-11-04T00:29:12.082Z,94.06
2022-11-04T00:29:24.301Z,94.15
2022-11-04T00:29:37.490Z,94.15
2022-11-04T00:29:49.239Z,94.26
2022-11-04T00:30:00.943Z,94.36
2022-11-04T00:30:14.149Z,94.46
2022-11-04T00:30:24.890Z,94.46
2022-11-04T00:30:37.330Z,94.56
2022-11-04T00:30:49.048Z,94.56
2022-11-04T00:31:00.739Z,94.67
2022-11-04T00:31:13.199Z,94.67
2022-11-04T00:31:25.359Z,94.67
2022-11-04T00:31:37.139Z,94.77
2022-11-04T00:31:47.959Z,94.77
2022-11-04T00:31:58.720Z,94.81
2022-11-04T00:32:09.459Z,94.92
2022-11-04T00:32:20.189Z,94.92
2022-11-04T00:32:30.962Z,95.02
2022-11-04T00:32:42.652Z,95.02
2022-11-04T00:32:53.611Z,95.02
2022-11-04T00:33:06.331Z,95.12
2022-11-04T00:33:18.041Z,95.12
2022-11-04T00:33:30.540Z,95.22
2022-11-04T00:33:42.990Z,95.22
2022-11-04T00:33:55.472Z,95.32
2022-11-04T00:34:06.348Z,95.43
2022-11-04T00:34:17.152Z,95.43
2022-11-04T00:34:27.881Z,95.53
2022-11-04T00:34:38.642Z,95.53
2022-11-04T00:34:51.121Z,95.63
2022-11-04T00:35:03.531Z,95.63
2022-11-04T00:35:14.280Z,95.73
2022-11-04T00:35:26.702Z,95.73
2022-11-04T00:35:38.423Z,95.84
2022-11-04T00:35:50.900Z,95.84
2022-11-04T00:36:02.651Z,95.84
2022-11-04T00:36:13.433Z,95.84
2022-11-04T00:36:25.872Z,95.94
2022-11-04T00:36:37.611Z,95.94
2022-11-04T00:36:50.812Z,95.94
2022-11-04T00:37:03.280Z,95.94
2022-11-04T00:37:15.010Z,96.04
2022-11-04T00:37:25.782Z,96.04
2022-11-04T00:37:36.553Z,96.04
2022-11-04T00:37:48.261Z,96.04
2022-11-04T00:37:59.992Z,96.04
2022-11-04T00:38:11.080Z,96.14
2022-11-04T00:38:23.631Z,96.14
2022-11-04T00:38:35.391Z,96.14
2022-11-04T00:38:46.154Z,96.14
2022-11-04T00:38:56.911Z,96.14
2022-11-04T00:39:07.696Z,96.14
2022-11-04T00:39:18.451Z,96.25
2022-11-04T00:39:31.162Z,96.25
2022-11-04T00:39:41.942Z,96.25
2022-11-04T00:39:54.671Z,96.25
2022-11-04T00:40:05.424Z,96.29
2022-11-04T00:40:16.203Z,96.29
2022-11-04T00:40:26.922Z,96.29
2022-11-04T00:40:37.712Z,96.39
2022-11-04T00:40:48.452Z,96.39
2022-11-04T00:41:00.142Z,96.39
2022-11-04T00:41:10.892Z,96.39
2022-11-04T00:41:21.612Z,96.39
2022-11-04T00:41:33.353Z,96.39
2022-11-04T00:41:44.083Z,96.39
2022-11-04T00:41:54.852Z,96.39
2022-11-04T00:42:08.013Z,96.39
2022-11-04T00:42:18.832Z,96.39
2022-11-04T00:42:29.595Z,96.39
2022-11-04T00:42:40.343Z,96.39
2022-11-04T00:42:51.103Z,96.39
2022-11-04T00:43:01.842Z,96.39
2022-11-04T00:43:15.535Z,96.39
2022-11-04T00:43:26.273Z,96.39
2022-11-04T00:43:37.993Z,96.39
2022-11-04T00:43:50.454Z,96.39
2022-11-04T00:44:01.200Z,96.39
2022-11-04T00:44:11.951Z,96.39
2022-11-04T00:44:22.712Z,96.39
2022-11-04T00:44:35.153Z,96.39
2022-11-04T00:44:45.891Z,96.39
2022-11-04T00:44:57.616Z,96.39
2022-11-04T00:45:09.333Z,96.49
2022-11-04T00:45:20.063Z,96.39
2022-11-04T00:45:31.823Z,96.49
2022-11-04T00:45:44.023Z,96.49
2022-11-04T00:45:54.762Z,96.49
2022-11-04T00:46:07.014Z,96.49
2022-11-04T00:46:17.804Z,96.49
2022-11-04T00:46:29.525Z,96.49
2022-11-04T00:46:40.272Z,96.49
2022-11-04T00:46:51.994Z,96.49
2022-11-04T00:47:02.822Z,96.54
2022-11-04T00:47:14.564Z,96.54
2022-11-04T00:47:25.314Z,96.64
2022-11-04T00:47:36.064Z,96.64
2022-11-04T00:47:47.797Z,96.64
2022-11-04T00:48:00.053Z,96.64
2022-11-04T00:48:11.162Z,96.64
2022-11-04T00:48:22.024Z,96.64
2022-11-04T00:48:34.455Z,96.64
2022-11-04T00:48:45.223Z,96.74
2022-11-04T00:48:55.979Z,96.74
2022-11-04T00:49:06.726Z,96.74
2022-11-04T00:49:18.454Z,96.74
2022-11-04T00:49:29.205Z,96.74
2022-11-04T00:49:40.926Z,96.74
2022-11-04T00:49:53.213Z,96.74
2022-11-04T00:50:03.964Z,96.74
2022-11-04T00:50:15.694Z,96.84
2022-11-04T00:50:26.493Z,96.84
2022-11-04T00:50:37.265Z,96.84
2022-11-04T00:50:49.714Z,96.84
2022-11-04T00:51:00.501Z,96.84
2022-11-04T00:51:25.559Z,96.95
2022-11-04T00:51:36.305Z,96.95
2022-11-04T00:51:47.065Z,96.95
2022-11-04T00:51:57.839Z,97.05
2022-11-04T00:52:08.567Z,97.05
2022-11-04T00:52:19.355Z,97.05
2022-11-04T00:52:30.139Z,97.05
2022-11-04T00:52:41.965Z,97.05
2022-11-04T00:52:54.935Z,97.05
2022-11-04T00:53:05.977Z,97.05
2022-11-04T00:53:16.915Z,97.05
2022-11-04T00:53:27.676Z,97.05
2022-11-04T00:53:39.398Z,97.05
2022-11-04T00:53:50.147Z,97.15
2022-11-04T00:54:00.876Z,97.15
2022-11-04T00:54:11.625Z,97.15
2022-11-04T00:54:22.387Z,97.15
2022-11-04T00:54:33.171Z,97.15
2022-11-04T00:54:44.187Z,97.15
2022-11-04T00:54:55.987Z,97.15
2022-11-04T00:55:07.757Z,97.15
2022-11-04T00:55:19.492Z,97.15
2022-11-04T00:55:30.234Z,97.15
2022-11-04T00:55:40.987Z,97.25
2022-11-04T00:55:52.696Z,97.25
2022-11-04T00:56:04.900Z,97.25
2022-11-04T00:56:16.630Z,97.25
2022-11-04T00:56:29.179Z,97.25
2022-11-04T00:56:41.620Z,97.25
2022-11-04T00:56:52.360Z,97.25
2022-11-04T00:57:04.086Z,97.25
2022-11-04T00:57:14.856Z,97.25
2022-11-04T00:57:27.036Z,97.25
2022-11-04T00:57:38.758Z,97.25
2022-11-04T00:57:51.696Z,97.25
2022-11-04T00:58:04.149Z,97.25
2022-11-04T00:58:14.937Z,97.25
2022-11-04T00:58:26.708Z,97.25
2022-11-04T00:58:40.424Z,97.25
2022-11-04T00:58:51.187Z,97.25
2022-11-04T00:59:03.666Z,97.25
2022-11-04T00:59:14.773Z,97.25
2022-11-04T00:59:26.506Z,97.30
2022-11-04T00:59:38.257Z,97.25
2022-11-04T00:59:49.958Z,97.30
2022-11-04T01:00:01.691Z,97.30
2022-11-04T01:00:12.471Z,97.30
2022-11-04T01:00:24.197Z,97.30
2022-11-04T01:00:35.007Z,97.30
2022-11-04T01:00:47.739Z,97.30
2022-11-04T01:00:59.873Z,97.30
2022-11-04T01:01:12.514Z,97.30
2022-11-04T01:01:24.457Z,97.30
2022-11-04T01:01:36.415Z,97.30
2022-11-04T01:01:48.968Z,97.30
2022-11-04T01:02:00.943Z,97.30
2022-11-04T01:02:11.878Z,97.30
2022-11-04T01:02:23.832Z,97.30
2022-11-04T01:02:34.799Z,97.30
2022-11-04T01:02:45.613Z,97.30
2022-11-04T01:02:57.382Z,97.30
2022-11-04T01:03:08.516Z,97.30
2022-11-04T01:03:19.509Z,97.30
2022-11-04T01:03:31.252Z,97.30
2022-11-04T01:03:44.469Z,97.30
2022-11-04T01:03:55.228Z,97.30
2022-11-04T01:04:06.013Z,97.30
2022-11-04T01:04:19.220Z,97.30
2022-11-04T01:04:31.689Z,97.40
2022-11-04T01:04:42.470Z,97.40
2022-11-04T01:04:54.928Z,97.40
2022-11-04T01:05:05.708Z,97.40
2022-11-04T01:05:18.258Z,97.40
2022-11-04T01:05:28.989Z,97.40
2022-11-04T01:05:40.754Z,97.40
2022-11-04T01:05:51.532Z,97.50
2022-11-04T01:06:02.289Z,97.50
2022-11-04T01:06:13.980Z,97.50
2022-11-04T01:06:24.747Z,97.50
2022-11-04T01:06:35.530Z,97.50
2022-11-04T01:06:48.019Z,97.50
2022-11-04T01:07:00.506Z,97.61
2022-11-04T01:07:11.238Z,97.61
2022-11-04T01:07:23.728Z,97.61
2022-11-04T01:07:37.341Z,97.61
2022-11-04T01:07:50.139Z,97.61
2022-11-04T01:08:00.918Z,97.61
2022-11-04T01:08:13.129Z,97.71
2022-11-04T01:08:23.949Z,97.71
2022-11-04T01:08:34.724Z,97.71
2022-11-04T01:08:45.490Z,97.71
2022-11-04T01:08:56.200Z,97.71
2022-11-04T01:09:08.164Z,97.81
2022-11-04T01:09:19.912Z,97.81
2022-11-04T01:09:31.641Z,97.81
2022-11-04T01:09:42.412Z,97.81
2022-11-04T01:09:54.129Z,97.91
2022-11-04T01:10:06.331Z,97.91
2022-11-04T01:10:17.091Z,97.91
2022-11-04T01:10:28.813Z,97.91
2022-11-04T01:10:39.591Z,97.91
2022-11-04T01:10:52.050Z,97.91
2022-11-04T01:11:02.787Z,98.02
2022-11-04T01:11:13.639Z,98.02
2022-11-04T01:11:25.420Z,98.02
2022-11-04T01:11:36.230Z,98.02
2022-11-04T01:11:48.434Z,98.02
2022-11-04T01:12:00.270Z,98.02
2022-11-04T01:12:10.995Z,98.02
2022-11-04T01:12:21.719Z,98.12
2022-11-04T01:12:32.500Z,98.12
2022-11-04T01:12:43.263Z,98.12
2022-11-04T01:12:54.041Z,98.12
2022-11-04T01:13:04.795Z,98.12
2022-11-04T01:13:15.521Z,98.12
2022-11-04T01:13:26.270Z,98.12
2022-11-04T01:13:37.059Z,98.22
2022-11-04T01:13:47.822Z,98.22
2022-11-04T01:13:58.552Z,98.22
2022-11-04T01:14:09.289Z,98.22
2022-11-04T01:14:21.750Z,98.22
2022-11-04T01:14:32.501Z,98.22
2022-11-04T01:14:43.233Z,98.22
2022-11-04T01:14:54.071Z,98.33
2022-11-04T01:15:04.917Z,98.33
2022-11-04T01:15:16.691Z,98.33
2022-11-04T01:15:27.440Z,98.33
2022-11-04T01:15:40.661Z,98.33
2022-11-04T01:15:51.400Z,98.33
2022-11-04T01:16:02.142Z,98.33
2022-11-04T01:16:13.108Z,98.33
2022-11-04T01:16:24.048Z,98.43
2022-11-04T01:16:34.794Z,98.43
2022-11-04T01:16:45.537Z,98.43
2022-11-04T01:16:56.326Z,98.43
2022-11-04T01:17:08.782Z,98.43
2022-11-04T01:17:20.542Z,98.43
2022-11-04T01:17:31.310Z,98.43
2022-11-04T01:17:42.053Z,98.43
2022-11-04T01:17:52.814Z,98.43
2022-11-04T01:18:03.586Z,98.43
2022-11-04T01:18:15.292Z,98.43
2022-11-04T01:18:26.063Z,98.43
2022-11-04T01:18:36.810Z,98.53
2022-11-04T01:18:47.524Z,98.53
2022-11-04T01:18:58.255Z,98.53
2022-11-04T01:19:09.974Z,98.53
2022-11-04T01:19:21.724Z,98.53
2022-11-04T01:19:34.193Z,98.53
2022-11-04T01:19:45.936Z,98.53
2022-11-04T01:19:57.664Z,98.53
2022-11-04T01:20:08.404Z,98.53
2022-11-04T01:20:19.152Z,98.53
2022-11-04T01:20:29.894Z,98.53
2022-11-04T01:20:40.646Z,98.63
2022-11-04T01:20:53.073Z,98.63
2022-11-04T01:21:03.801Z,98.63
2022-11-04T01:21:14.562Z,98.63
2022-11-04T01:21:26.317Z,98.63
2022-11-04T01:21:39.523Z,98.63
2022-11-04T01:21:54.744Z,98.63
2022-11-04T01:22:06.495Z,98.63
2022-11-04T01:22:18.237Z,98.63
2022-11-04T01:22:29.023Z,98.63
2022-11-04T01:22:39.813Z,98.63
2022-11-04T01:22:50.575Z,98.63
2022-11-04T01:23:01.354Z,98.63
2022-11-04T01:23:12.155Z,98.74
2022-11-04T01:23:22.893Z,98.74
2022-11-04T01:23:33.701Z,98.74
2022-11-04T01:23:44.475Z,98.74
2022-11-04T01:23:56.933Z,98.74
2022-11-04T01:24:09.405Z,98.74
2022-11-04T01:24:21.124Z,98.74
2022-11-04T01:24:31.914Z,98.74
2022-11-04T01:24:42.724Z,98.74
2022-11-04T01:24:53.516Z,98.74
2022-11-04T01:25:04.246Z,98.74
2022-11-04T01:25:14.963Z,98.83
2022-11-04T01:25:27.411Z,98.83
2022-11-04T01:25:39.134Z,98.83
2022-11-04T01:25:51.568Z,98.83
2022-11-04T01:26:02.314Z,98.83
2022-11-04T01:26:13.058Z,98.83
2022-11-04T01:26:24.774Z,98.83
2022-11-04T01:26:38.001Z,98.83
2022-11-04T01:26:49.725Z,98.83
2022-11-04T01:27:01.446Z,98.83
2022-11-04T01:27:13.656Z,98.83
2022-11-04T01:27:24.423Z,98.83
2022-11-04T01:27:36.134Z,98.83
2022-11-04T01:27:46.925Z,98.83
2022-11-04T01:27:58.709Z,98.83
2022-11-04T01:28:09.928Z,98.83
2022-11-04T01:28:21.845Z,98.83
2022-11-04T01:28:32.634Z,98.83
2022-11-04T01:28:44.825Z,98.83
2022-11-04T01:28:55.585Z,98.83
2022-11-04T01:29:06.334Z,98.83
2022-11-04T01:29:18.038Z,98.83
2022-11-04T01:29:28.815Z,98.94
2022-11-04T01:29:39.606Z,98.83
2022-11-04T01:29:50.345Z,98.94
2022-11-04T01:30:01.095Z,98.94
2022-11-04T01:30:11.858Z,98.94
2022-11-04T01:30:23.554Z,98.94
2022-11-04T01:30:34.430Z,98.94
2022-11-04T01:30:45.215Z,98.94
2022-11-04T01:30:55.994Z,98.94
2022-11-04T01:31:06.726Z,98.94
2022-11-04T01:31:17.476Z,98.94
2022-11-04T01:31:31.129Z,98.94
2022-11-04T01:31:42.905Z,98.94
2022-11-04T01:31:54.625Z,98.94
2022-11-04T01:32:06.355Z,98.94
2022-11-04T01:32:18.608Z,98.94
2022-11-04T01:32:31.117Z,98.94
2022-11-04T01:32:41.935Z,98.94
2022-11-04T01:32:52.730Z,98.94
2022-11-04T01:33:03.485Z,98.94
2022-11-04T01:33:14.284Z,98.94
2022-11-04T01:33:25.065Z,98.94
2022-11-04T01:33:35.836Z,98.94
2022-11-04T01:33:48.050Z,98.94
2022-11-04T01:33:58.788Z,98.94
2022-11-04T01:34:09.517Z,98.94
2022-11-04T01:34:20.269Z,98.94
2022-11-04T01:34:31.006Z,98.94
2022-11-04T01:34:43.739Z,98.94
2022-11-04T01:34:55.430Z,98.94
2022-11-04T01:35:07.201Z,98.94
2022-11-04T01:35:18.064Z,98.94
2022-11-04T01:35:28.828Z,98.94
2022-11-04T01:35:39.617Z,98.94
2022-11-04T01:35:50.376Z,98.94
2022-11-04T01:36:01.146Z,98.94
2022-11-04T01:36:13.587Z,98.94
2022-11-04T01:36:25.325Z,98.94
2022-11-04T01:36:36.090Z,98.94
2022-11-04T01:36:46.855Z,98.94
2022-11-04T01:36:58.599Z,98.94
2022-11-04T01:37:09.388Z,98.94
2022-11-04T01:37:21.159Z,98.94
2022-11-04T01:37:32.892Z,98.94
2022-11-04T01:37:43.644Z,98.94
2022-11-04T01:37:54.399Z,98.94
2022-11-04T01:38:05.280Z,98.94
2022-11-04T01:38:16.176Z,98.94
2022-11-04T01:38:28.625Z,98.94
2022-11-04T01:38:39.420Z,98.94
2022-11-04T01:38:50.188Z,98.94
2022-11-04T01:39:02.610Z,99.04
2022-11-04T01:39:13.396Z,98.94
2022-11-04T01:39:24.359Z,99.04
2022-11-04T01:39:35.187Z,99.04
2022-11-04T01:39:45.988Z,99.04
2022-11-04T01:39:57.708Z,99.04
2022-11-04T01:40:08.450Z,99.04
2022-11-04T01:40:20.918Z,99.04
2022-11-04T01:40:31.669Z,99.04
2022-11-04T01:40:42.487Z,99.04
2022-11-04T01:40:53.237Z,99.04
2022-11-04T01:41:05.708Z,99.04
2022-11-04T01:41:17.930Z,99.04
2022-11-04T01:41:28.687Z,99.04
2022-11-04T01:41:39.439Z,99.04
2022-11-04T01:41:51.952Z,99.04
2022-11-04T01:42:15.891Z,99.15
2022-11-04T01:42:26.631Z,99.15
2022-11-04T01:42:39.339Z,99.15
2022-11-04T01:42:51.761Z,99.15
2022-11-04T01:43:04.282Z,99.15
2022-11-04T01:43:16.049Z,99.15
2022-11-04T01:43:26.853Z,99.15
2022-11-04T01:43:37.640Z,99.15
2022-11-04T01:43:48.454Z,99.15
2022-11-04T01:43:59.208Z,99.15
2022-11-04T01:44:09.969Z,99.15
2022-11-04T01:44:20.699Z,99.15
2022-11-04T01:44:31.429Z,99.15
2022-11-04T01:44:42.228Z,99.25
2022-11-04T01:44:52.970Z,99.15
2022-11-04T01:45:04.958Z,99.25
2022-11-04T01:45:15.739Z,99.25
2022-11-04T01:45:26.489Z,99.25
2022-11-04T01:45:37.230Z,99.25
2022-11-04T01:45:47.969Z,99.25
2022-11-04T01:45:58.701Z,99.25
2022-11-04T01:46:10.399Z,99.25
2022-11-04T01:46:22.102Z,99.25
2022-11-04T01:46:33.799Z,99.25
2022-11-04T01:46:45.550Z,99.25
2022-11-04T01:46:56.308Z,99.25
2022-11-04T01:47:07.091Z,99.25
2022-11-04T01:47:18.841Z,99.25
2022-11-04T01:47:31.295Z,99.25
2022-11-04T01:47:43.990Z,99.25
2022-11-04T01:47:55.713Z,99.25
2022-11-04T01:48:07.450Z,99.25
2022-11-04T01:48:18.179Z,99.25
2022-11-04T01:48:28.910Z,99.25
2022-11-04T01:48:41.162Z,99.25
2022-11-04T01:48:52.900Z,99.25
2022-11-04T01:49:04.850Z,99.25
2022-11-04T01:49:15.630Z,99.25
2022-11-04T01:49:26.372Z,99.25
2022-11-04T01:49:39.236Z,99.25
2022-11-04T01:49:53.790Z,99.25
2022-11-04T01:50:05.571Z,99.25
2022-11-04T01:50:16.349Z,99.25
2022-11-04T01:50:27.100Z,99.25
2022-11-04T01:50:37.879Z,99.25
2022-11-04T01:50:48.624Z,99.25
2022-11-04T01:51:00.374Z,99.25
2022-11-04T01:51:11.131Z,99.25
2022-11-04T01:51:22.903Z,99.25
2022-11-04T01:51:33.672Z,99.25
2022-11-04T01:51:44.441Z,99.25
2022-11-04T01:51:56.673Z,99.25
2022-11-04T01:52:08.412Z,99.15
2022-11-04T01:52:19.180Z,99.15
2022-11-04T01:52:32.892Z,99.15
2022-11-04T01:52:43.632Z,99.15
2022-11-04T01:52:55.393Z,99.15
2022-11-04T01:53:06.492Z,99.15
2022-11-04T01:53:19.293Z,99.04
2022-11-04T01:53:30.124Z,99.04
2022-11-04T01:53:40.951Z,99.04
2022-11-04T01:53:51.763Z,99.04
2022-11-04T01:54:02.500Z,98.94
2022-11-04T01:54:13.281Z,98.83
2022-11-04T01:54:25.001Z,98.83
2022-11-04T01:54:35.749Z,98.83
2022-11-04T01:54:46.489Z,98.74
2022-11-04T01:54:57.221Z,98.74
2022-11-04T01:55:07.972Z,98.74
2022-11-04T01:55:18.712Z,98.63
2022-11-04T01:55:29.491Z,98.63
2022-11-04T01:55:40.255Z,98.53
2022-11-04T01:55:51.001Z,98.43
2022-11-04T01:56:01.790Z,98.43
2022-11-04T01:56:12.534Z,98.33
2022-11-04T01:56:24.763Z,98.33
2022-11-04T01:56:36.495Z,98.22
2022-11-04T01:56:48.701Z,98.12
2022-11-04T01:56:59.443Z,98.02
2022-11-04T01:57:14.884Z,97.87
2022-11-04T01:57:25.853Z,97.91
2022-11-04T01:57:36.642Z,97.81
2022-11-04T01:57:47.402Z,97.71
2022-11-04T01:57:58.194Z,97.71
2022-11-04T01:58:08.963Z,97.61
2022-11-04T01:58:20.685Z,97.61
2022-11-04T01:58:33.243Z,97.50
2022-11-04T01:58:44.973Z,97.50
2022-11-04T01:58:55.713Z,97.50
2022-11-04T01:59:07.444Z,97.50
2022-11-04T01:59:19.885Z,97.40
2022-11-04T01:59:30.676Z,97.40
2022-11-04T01:59:41.502Z,97.30
2022-11-04T01:59:53.224Z,97.30
2022-11-04T02:00:03.983Z,97.20
2022-11-04T02:00:14.750Z,97.09
2022-11-04T02:00:25.513Z,97.09
2022-11-04T02:00:36.273Z,96.99
2022-11-04T02:00:47.026Z,96.89
2022-11-04T02:00:58.798Z,96.89
2022-11-04T02:01:09.606Z,96.89
2022-11-04T02:01:20.503Z,96.79
2022-11-04T02:01:32.420Z,96.69
2022-11-04T02:01:43.380Z,96.69
2022-11-04T02:01:54.393Z,96.58
2022-11-04T02:02:05.270Z,96.48
2022-11-04T02:02:16.250Z,96.38
2022-11-04T02:02:27.253Z,96.28
2022-11-04T02:02:39.079Z,96.28
2022-11-04T02:02:51.570Z,96.28
2022-11-04T02:03:04.016Z,96.17
2022-11-04T02:03:16.948Z,96.17
2022-11-04T02:03:28.656Z,96.17
2022-11-04T02:03:39.443Z,96.17
2022-11-04T02:03:51.885Z,96.17
2022-11-04T02:04:02.626Z,96.07
2022-11-04T02:04:13.393Z,96.07
2022-11-04T02:04:25.164Z,95.97
2022-11-04T02:04:36.906Z,95.97
2022-11-04T02:04:48.684Z,95.87
2022-11-04T02:04:59.504Z,95.87
2022-11-04T02:05:11.954Z,95.76
2022-11-04T02:05:22.693Z,95.76
2022-11-04T02:05:33.444Z,95.76
2022-11-04T02:05:45.171Z,95.76
2022-11-04T02:05:57.384Z,95.56
2022-11-04T02:06:10.529Z,95.15
2022-11-04T02:06:21.304Z,94.64
2022-11-04T02:06:32.046Z,94.33
2022-11-04T02:06:44.285Z,94.12
2022-11-04T02:06:57.497Z,93.82
2022-11-04T02:07:09.945Z,93.62
2022-11-04T02:07:20.714Z,93.51
2022-11-04T02:07:31.524Z,93.51
2022-11-04T02:07:42.266Z,93.51
2022-11-04T02:07:54.705Z,93.51
2022-11-04T02:08:05.465Z,93.62
2022-11-04T02:08:16.266Z,93.62
2022-11-04T02:08:28.030Z,93.71
2022-11-04T02:08:39.747Z,93.82
2022-11-04T02:08:52.214Z,93.82
2022-11-04T02:09:03.999Z,93.92
2022-11-04T02:09:14.756Z,93.82
2022-11-04T02:09:27.965Z,93.71
2022-11-04T02:09:38.757Z,93.62
2022-11-04T02:09:49.603Z,93.41
2022-11-04T02:10:01.325Z,93.10
2022-11-04T02:10:12.056Z,92.49
2022-11-04T02:10:24.305Z,91.67
2022-11-04T02:10:35.079Z,91.16
2022-11-04T02:10:46.789Z,90.75
2022-11-04T02:10:57.548Z,90.13
2022-11-04T02:11:08.366Z,89.83
2022-11-04T02:11:19.178Z,89.62
2022-11-04T02:11:29.926Z,89.58
2022-11-04T02:11:42.187Z,89.47
2022-11-04T02:11:53.903Z,89.58
2022-11-04T02:12:06.428Z,89.58
2022-11-04T02:12:18.218Z,89.37
2022-11-04T02:12:29.017Z,89.27
2022-11-04T02:12:41.465Z,89.06
2022-11-04T02:12:53.906Z,88.65
2022-11-04T02:13:06.605Z,88.45
2022-11-04T02:13:19.314Z,88.35
2022-11-04T02:13:30.057Z,88.24
2022-11-04T02:13:40.855Z,88.14
2022-11-04T02:13:52.592Z,88.14
2022-11-04T02:14:04.893Z,88.14
2022-11-04T02:14:15.622Z,87.73
2022-11-04T02:14:27.368Z,87.22
2022-11-04T02:14:38.196Z,87.02
2022-11-04T02:14:50.674Z,87.43
2022-11-04T02:15:01.477Z,87.73
2022-11-04T02:15:13.188Z,87.84
2022-11-04T02:15:24.939Z,87.70
2022-11-04T02:15:36.737Z,87.38
2022-11-04T02:15:47.499Z,87.29
2022-11-04T02:15:59.187Z,87.18
2022-11-04T02:16:09.955Z,87.08
2022-11-04T02:16:22.447Z,87.18
2022-11-04T02:16:33.187Z,87.29
2022-11-04T02:16:44.924Z,87.08
2022-11-04T02:16:55.657Z,86.98
2022-11-04T02:17:08.856Z,86.98
2022-11-04T02:17:19.706Z,87.08
2022-11-04T02:17:30.456Z,86.98
2022-11-04T02:17:41.246Z,86.67
2022-11-04T02:17:51.986Z,86.26
2022-11-04T02:18:02.736Z,86.26
2022-11-04T02:18:15.149Z,86.36
2022-11-04T02:18:25.888Z,86.46
2022-11-04T02:18:37.608Z,86.67
2022-11-04T02:18:48.527Z,86.67
2022-11-04T02:18:59.250Z,86.67
2022-11-04T02:19:11.488Z,86.36
2022-11-04T02:19:22.226Z,86.16
2022-11-04T02:19:33.027Z,86.05
2022-11-04T02:19:45.033Z,86.05
2022-11-04T02:19:55.827Z,85.96
2022-11-04T02:20:06.561Z,85.85
2022-11-04T02:20:17.288Z,85.75
2022-11-04T02:20:28.049Z,85.64
2022-11-04T02:20:40.497Z,85.55
2022-11-04T02:20:51.296Z,85.34
2022-11-04T02:21:05.058Z,85.44
2022-11-04T02:21:15.870Z,85.55
2022-11-04T02:21:26.699Z,85.64
2022-11-04T02:21:39.668Z,85.64
2022-11-04T02:21:52.147Z,85.55
2022-11-04T02:22:02.903Z,85.55
2022-11-04T02:22:13.628Z,85.55
2022-11-04T02:22:24.361Z,85.55
2022-11-04T02:22:35.118Z,85.55
2022-11-04T02:22:47.588Z,85.55
2022-11-04T02:22:58.347Z,85.64
2022-11-04T02:23:10.420Z,85.75
2022-11-04T02:23:21.438Z,85.85
2022-11-04T02:23:32.219Z,85.96
2022-11-04T02:23:43.002Z,85.79
2022-11-04T02:23:53.800Z,85.28
2022-11-04T02:24:06.260Z,84.87
2022-11-04T02:24:17.960Z,84.66
2022-11-04T02:24:28.719Z,84.77
2022-11-04T02:24:41.196Z,84.87
2022-11-04T02:24:51.960Z,84.87
2022-11-04T02:25:04.643Z,84.87
2022-11-04T02:25:15.400Z,84.97
2022-11-04T02:25:26.309Z,84.87
2022-11-04T02:25:37.124Z,84.87
2022-11-04T02:25:48.855Z,84.97
2022-11-04T02:25:59.660Z,84.66
2022-11-04T02:26:11.379Z,84.25
2022-11-04T02:26:22.153Z,84.15
2022-11-04T02:26:32.899Z,84.25
2022-11-04T02:26:44.589Z,84.46
2022-11-04T02:26:55.359Z,84.56
2022-11-04T02:27:07.059Z,84.77
2022-11-04T02:27:17.841Z,84.87
2022-11-04T02:27:28.631Z,84.97